createdAt,value
2023-03-08T00:01:25.509Z,2.80
2023-03-08T00:03:55.096Z,3.90
2023-03-08T00:06:23.474Z,3.60
2023-03-08T00:08:54.821Z,1.90
2023-03-08T00:11:22.858Z,2.30
2023-03-08T00:13:51.027Z,2.10
2023-03-08T00:16:19.287Z,3.20
2023-03-08T00:18:47.362Z,2.00
2023-03-08T00:21:18.090Z,3.72
2023-03-08T00:23:46.761Z,2.75
2023-03-08T00:26:14.888Z,2.28
2023-03-08T00:28:43.531Z,4.63
2023-03-08T00:31:13.561Z,2.70
2023-03-08T00:33:41.991Z,3.17
2023-03-08T00:36:21.876Z,1.83
2023-03-08T00:38:51.304Z,2.40
2023-03-08T00:41:19.699Z,2.65
2023-03-08T00:43:47.878Z,3.38
2023-03-08T00:46:16.345Z,1.95
2023-03-08T00:48:45.805Z,2.33
2023-03-08T00:51:15.364Z,3.08
2023-03-08T00:53:43.528Z,2.80
2023-03-08T00:56:11.829Z,3.00
2023-03-08T00:58:41.703Z,4.53
2023-03-08T01:01:17.862Z,2.70
2023-03-08T01:03:48.317Z,3.22
2023-03-08T01:06:17.057Z,2.85
2023-03-08T01:08:45.676Z,2.85
2023-03-08T01:11:25.198Z,3.05
2023-03-08T01:13:54.254Z,3.15
2023-03-08T01:16:25.002Z,4.50
2023-03-08T01:18:53.712Z,3.80
2023-03-08T01:21:22.478Z,2.92
2023-03-08T01:23:50.632Z,3.05
2023-03-08T01:26:20.614Z,3.20
2023-03-08T01:28:49.209Z,4.90
2023-03-08T01:31:25.396Z,4.50
2023-03-08T01:33:54.939Z,4.35
2023-03-08T01:36:24.933Z,3.75
2023-03-08T01:38:53.117Z,3.40
2023-03-08T01:41:32.181Z,3.08
2023-03-08T01:44:00.143Z,3.88
2023-03-08T01:46:28.815Z,4.30
2023-03-08T01:49:34.075Z,5.80
2023-03-08T01:52:13.323Z,7.20
2023-03-08T01:54:47.124Z,4.53
2023-03-08T01:57:35.647Z,4.45
2023-03-08T02:00:10.001Z,4.10
2023-03-08T05:03:10.374Z,11.48
2023-03-08T05:05:38.306Z,10.63
2023-03-08T05:08:06.304Z,12.43
2023-03-08T05:10:36.570Z,16.98
2023-03-08T05:13:04.626Z,10.15
2023-03-08T05:15:32.459Z,9.60
2023-03-08T05:18:00.382Z,9.15
2023-03-08T05:20:29.010Z,12.25
2023-03-08T05:22:59.421Z,11.05
2023-03-08T05:25:44.985Z,10.23
2023-03-08T05:28:16.104Z,12.98
2023-03-08T05:33:16.065Z,9.60
2023-03-08T05:35:44.242Z,10.60
2023-03-08T05:38:12.283Z,9.30
2023-03-08T05:40:40.824Z,9.25
2023-03-08T05:43:09.478Z,10.00
2023-03-08T05:45:37.616Z,9.68
2023-03-08T05:48:06.269Z,9.23
2023-03-08T05:50:38.868Z,11.60
2023-03-08T05:53:06.906Z,12.18
2023-03-08T05:55:35.319Z,14.13
2023-03-08T05:58:03.501Z,12.45
2023-03-08T06:00:31.426Z,11.40
2023-03-08T06:03:04.106Z,10.23
2023-03-08T06:05:35.360Z,9.07
2023-03-08T06:08:03.496Z,9.50
2023-03-08T06:10:31.461Z,10.85
2023-03-08T06:12:59.604Z,7.45
2023-03-08T06:15:27.602Z,8.85
2023-03-08T06:17:57.357Z,7.50
2023-03-08T06:20:28.374Z,7.10
2023-03-08T06:22:57.418Z,9.18
2023-03-08T06:25:25.866Z,10.98
2023-03-08T06:27:54.263Z,7.70
2023-03-08T06:30:28.807Z,8.85
2023-03-08T06:32:57.627Z,8.30
2023-03-08T06:35:25.838Z,11.57
2023-03-08T06:37:58.479Z,10.90
2023-03-08T06:40:29.534Z,10.35
2023-03-08T06:42:58.638Z,10.13
2023-03-08T06:45:26.871Z,10.52
2023-03-08T06:47:54.932Z,8.77
2023-03-08T06:50:22.944Z,11.55
2023-03-08T06:52:51.487Z,9.45
2023-03-08T06:55:26.151Z,10.95
2023-03-08T06:57:55.798Z,11.85
2023-03-08T07:00:24.154Z,12.45
2023-03-08T07:02:52.296Z,11.70
2023-03-08T07:05:20.081Z,9.98
2023-03-08T07:07:48.020Z,10.57
2023-03-08T07:10:16.835Z,10.65
2023-03-08T07:12:48.704Z,10.65
2023-03-08T07:15:19.238Z,9.27
2023-03-08T07:17:48.175Z,11.10
2023-03-08T07:20:18.694Z,11.02
2023-03-08T07:22:46.884Z,10.23
2023-03-08T07:25:16.298Z,12.60
2023-03-08T07:27:44.761Z,12.98
2023-03-08T07:30:14.184Z,9.55
2023-03-08T07:32:43.190Z,12.93
2023-03-08T07:35:14.275Z,12.13
2023-03-08T07:37:44.325Z,11.02
2023-03-08T07:40:14.105Z,10.80
2023-03-08T07:42:42.212Z,9.65
2023-03-08T07:45:29.082Z,11.20
2023-03-08T07:47:57.085Z,9.45
2023-03-08T07:50:24.928Z,11.18
2023-03-08T07:52:53.033Z,13.95
2023-03-08T07:55:21.756Z,14.85
2023-03-08T07:57:49.687Z,11.52
2023-03-08T08:00:18.338Z,10.85
2023-03-08T08:02:47.208Z,11.00
2023-03-08T08:05:15.266Z,11.50
2023-03-08T08:07:43.411Z,10.85
2023-03-08T08:10:11.885Z,11.32
2023-03-08T08:12:39.790Z,10.68
2023-03-08T08:15:08.078Z,12.10
2023-03-08T08:17:36.230Z,13.43
2023-03-08T08:20:06.300Z,10.02
2023-03-08T08:22:36.535Z,11.65
2023-03-08T08:25:06.297Z,10.43
2023-03-08T08:27:34.780Z,11.68
2023-03-08T08:30:04.478Z,11.60
2023-03-08T08:32:35.539Z,10.23
2023-03-08T08:35:03.791Z,9.82
2023-03-08T08:37:33.194Z,9.43
2023-03-08T08:40:01.137Z,10.35
2023-03-08T08:42:29.155Z,10.43
2023-03-08T08:44:57.307Z,11.73
2023-03-08T08:47:25.068Z,10.95
2023-03-08T08:49:53.222Z,10.43
2023-03-08T08:52:21.322Z,9.55
2023-03-08T08:54:49.362Z,10.00
2023-03-08T08:57:17.211Z,10.73
2023-03-08T08:59:45.133Z,12.52
2023-03-08T09:02:13.681Z,11.30
2023-03-08T09:04:41.680Z,10.32
2023-03-08T09:07:12.772Z,9.48
2023-03-08T09:09:40.843Z,11.27
2023-03-08T09:12:11.983Z,9.60
2023-03-08T09:14:43.047Z,10.32
2023-03-08T09:17:11.260Z,8.80
2023-03-08T09:19:39.593Z,12.90
2023-03-08T09:22:07.661Z,9.40
2023-03-08T09:24:35.594Z,9.38
2023-03-08T09:27:06.394Z,10.00
2023-03-08T09:29:35.357Z,10.30
2023-03-08T09:32:03.379Z,11.82
2023-03-08T09:34:31.244Z,11.57
2023-03-08T09:36:59.262Z,8.88
2023-03-08T09:39:27.901Z,11.57
2023-03-08T09:41:58.713Z,9.20
2023-03-08T09:44:55.380Z,10.75
2023-03-08T09:47:47.030Z,7.07
2023-03-08T09:50:17.175Z,10.00
2023-03-08T09:52:58.770Z,13.05
2023-03-08T09:55:32.816Z,10.65
2023-03-08T09:58:06.178Z,8.95
2023-03-08T10:00:36.670Z,9.55
2023-03-08T10:03:04.500Z,12.95
2023-03-08T10:05:41.453Z,9.48
2023-03-08T10:08:33.064Z,10.93
2023-03-08T10:11:07.798Z,8.65
2023-03-08T10:13:41.485Z,10.38
2023-03-08T10:16:17.488Z,10.00
2023-03-08T10:19:19.168Z,9.73
2023-03-08T10:21:48.204Z,8.93
2023-03-08T10:24:26.917Z,7.90
2023-03-08T10:27:04.802Z,8.80
2023-03-08T10:29:32.584Z,10.52
2023-03-08T10:32:00.543Z,9.15
2023-03-08T10:34:31.425Z,10.25
2023-03-08T10:37:05.060Z,9.20
2023-03-08T10:39:32.940Z,10.90
2023-03-08T10:42:02.652Z,9.60
2023-03-08T10:44:31.316Z,8.73
2023-03-08T10:46:59.386Z,8.32
2023-03-08T10:49:28.099Z,8.95
2023-03-08T10:52:00.677Z,8.32
2023-03-08T10:54:29.256Z,10.60
2023-03-08T10:57:01.436Z,8.85
2023-03-08T10:59:34.583Z,8.43
2023-03-08T11:02:14.723Z,4.90
2023-03-08T11:04:53.797Z,3.95
2023-03-08T11:07:31.092Z,4.82
2023-03-08T11:10:17.374Z,3.88
2023-03-08T11:12:46.065Z,4.93
2023-03-08T11:15:18.812Z,3.53
2023-03-08T11:18:12.130Z,3.53
2023-03-08T11:20:50.162Z,4.22
2023-03-08T11:23:28.892Z,5.30
2023-03-08T11:26:04.646Z,4.10
2023-03-08T11:28:44.617Z,4.75
2023-03-08T11:31:27.259Z,5.05
2023-03-08T11:34:02.463Z,5.13
2023-03-08T11:36:32.892Z,3.92
2023-03-08T11:39:22.218Z,4.15
2023-03-08T11:41:59.412Z,4.25
2023-03-08T11:44:53.089Z,4.68
2023-03-08T11:47:30.326Z,5.07
2023-03-08T11:50:14.850Z,4.97
2023-03-08T11:53:05.939Z,6.28
2023-03-08T11:55:55.418Z,7.13
2023-03-08T11:58:49.295Z,6.38
2023-03-08T12:01:21.792Z,7.30
2023-03-08T12:04:04.638Z,4.05
2023-03-08T12:06:38.417Z,3.70
2023-03-08T12:09:20.727Z,4.20
2023-03-08T12:12:11.454Z,2.47
2023-03-08T12:14:56.708Z,5.43
2023-03-08T12:17:39.644Z,5.60
2023-03-08T12:20:15.284Z,5.07
2023-03-08T12:22:47.329Z,6.85
2023-03-08T12:25:34.812Z,6.50
2023-03-08T12:28:28.910Z,6.75
2023-03-08T12:31:26.562Z,6.68
2023-03-08T12:33:57.301Z,6.63
2023-03-08T12:36:38.738Z,6.72
2023-03-08T12:39:10.276Z,7.00
2023-03-08T12:41:38.417Z,7.20
2023-03-08T12:44:27.451Z,6.85
2023-03-08T12:47:03.383Z,7.28
2023-03-08T12:49:37.973Z,5.88
2023-03-08T12:52:35.625Z,6.25
2023-03-08T12:55:21.175Z,9.00
2023-03-08T12:57:54.964Z,9.18
2023-03-08T13:00:27.236Z,6.80
2023-03-08T13:03:07.709Z,9.98
2023-03-08T13:05:40.282Z,9.00
2023-03-08T13:08:14.216Z,8.60
2023-03-08T13:10:56.976Z,8.57
2023-03-08T13:13:39.726Z,8.45
2023-03-08T13:16:30.652Z,7.97
2023-03-08T13:19:27.999Z,6.82
2023-03-08T13:22:04.701Z,6.88
2023-03-08T13:24:41.682Z,7.70
2023-03-08T13:27:28.213Z,5.70
2023-03-08T13:30:18.210Z,9.55
2023-03-08T13:32:46.169Z,8.70
2023-03-08T13:35:16.360Z,7.05
2023-03-08T13:37:51.814Z,5.90
2023-03-08T13:40:21.763Z,8.07
2023-03-08T13:43:02.678Z,7.13
2023-03-08T13:45:31.334Z,5.10
2023-03-08T13:48:01.228Z,8.02
2023-03-08T13:50:35.982Z,8.55
2023-03-08T13:53:08.355Z,10.93
2023-03-08T13:55:40.585Z,7.88
2023-03-08T13:58:13.772Z,7.72
2023-03-08T14:00:41.954Z,7.32
2023-03-08T14:03:20.441Z,10.38
2023-03-08T14:05:50.440Z,9.80
2023-03-08T14:08:28.412Z,8.70
2023-03-08T14:11:03.575Z,10.98
2023-03-08T14:13:34.949Z,8.70
2023-03-08T14:16:09.698Z,9.30
2023-03-08T14:18:43.797Z,7.95
2023-03-08T14:21:23.125Z,7.65
2023-03-08T14:23:59.857Z,7.38
2023-03-08T14:26:39.538Z,6.97
2023-03-08T14:29:25.003Z,9.20
2023-03-08T14:32:16.268Z,10.70
2023-03-08T14:34:48.728Z,7.53
2023-03-08T14:37:25.265Z,8.82
2023-03-08T14:39:56.024Z,7.00
2023-03-08T14:42:27.569Z,7.43
2023-03-08T14:45:07.254Z,6.03
2023-03-08T14:47:36.208Z,6.60
2023-03-08T14:50:09.231Z,7.65
2023-03-08T14:52:44.121Z,5.88
2023-03-08T14:55:31.965Z,6.43
2023-03-08T14:58:03.592Z,8.07
2023-03-08T15:00:32.209Z,6.28
2023-03-08T15:03:01.020Z,4.47
2023-03-08T15:05:30.205Z,5.50
2023-03-08T15:07:59.520Z,5.72
2023-03-08T15:10:39.358Z,5.22
2023-03-08T15:13:18.928Z,6.07
2023-03-08T15:15:47.045Z,5.93
2023-03-08T15:18:15.139Z,8.57
2023-03-08T15:20:45.618Z,6.90
2023-03-08T15:23:29.569Z,9.32
2023-03-08T15:25:57.780Z,6.25
2023-03-08T15:28:25.867Z,7.53
2023-03-08T15:30:57.667Z,5.32
2023-03-08T15:35:53.847Z,5.30
2023-03-08T15:38:22.891Z,5.88
2023-03-08T15:40:50.805Z,5.68
2023-03-08T15:43:18.684Z,6.47
2023-03-08T15:45:47.076Z,8.50
2023-03-08T15:48:17.077Z,7.22
2023-03-08T15:50:45.478Z,8.48
2023-03-08T15:53:18.562Z,6.47
2023-03-08T15:55:54.018Z,5.43
2023-03-08T15:58:22.173Z,4.95
2023-03-08T16:00:50.480Z,6.07
2023-03-08T16:03:26.164Z,5.30
2023-03-08T16:05:55.288Z,6.28
2023-03-08T16:08:25.254Z,7.53
2023-03-08T16:10:53.239Z,6.38
2023-03-08T16:13:24.262Z,4.82
2023-03-08T16:15:51.985Z,5.07
2023-03-08T16:18:19.708Z,7.47
2023-03-08T16:20:47.556Z,5.53
2023-03-08T16:23:17.827Z,7.22
2023-03-08T16:25:46.697Z,6.45
2023-03-08T16:28:14.669Z,6.03
2023-03-08T16:30:43.193Z,8.50
2023-03-08T16:33:13.337Z,7.32
2023-03-08T16:35:41.988Z,5.45
2023-03-08T16:38:10.292Z,6.95
2023-03-08T16:40:39.962Z,6.40
2023-03-08T16:43:08.549Z,7.93
2023-03-08T16:45:38.235Z,7.88
2023-03-08T16:48:06.427Z,6.78
2023-03-08T16:50:34.260Z,6.03
2023-03-08T16:53:01.997Z,5.53
2023-03-08T16:55:29.973Z,6.18
2023-03-08T16:57:57.945Z,7.75
2023-03-08T17:00:27.305Z,6.40
2023-03-08T17:02:54.952Z,7.47
2023-03-08T17:05:22.656Z,9.38
2023-03-08T17:07:51.646Z,7.18
2023-03-08T17:10:19.507Z,7.88
2023-03-08T17:12:47.886Z,8.95
2023-03-08T17:15:15.785Z,10.15
2023-03-08T17:17:43.729Z,8.63
2023-03-08T17:20:14.157Z,7.78
2023-03-08T17:22:42.075Z,7.75
2023-03-08T17:25:10.527Z,8.85
2023-03-08T17:27:38.506Z,8.15
2023-03-08T17:30:07.121Z,8.30
2023-03-08T17:32:35.532Z,7.88
2023-03-08T17:35:03.996Z,7.60
2023-03-08T17:37:32.059Z,7.40
2023-03-08T17:39:59.954Z,10.52
2023-03-08T17:42:27.933Z,9.60
2023-03-08T17:44:55.661Z,10.30
2023-03-08T17:47:23.445Z,9.48
2023-03-08T17:49:51.471Z,7.43
2023-03-08T17:52:19.287Z,7.82
2023-03-08T17:54:48.952Z,9.55
2023-03-08T17:57:19.038Z,10.02
2023-03-08T17:59:51.224Z,12.63
2023-03-08T18:02:20.146Z,8.35
2023-03-08T18:04:50.253Z,10.75
2023-03-08T18:07:21.196Z,10.48
2023-03-08T18:09:49.303Z,12.10
2023-03-08T18:12:17.615Z,11.68
2023-03-08T18:14:47.452Z,11.75
2023-03-08T18:17:15.551Z,12.75
2023-03-08T18:19:43.830Z,10.25
2023-03-08T18:22:12.004Z,10.20
2023-03-08T18:24:40.371Z,12.02
2023-03-08T18:27:08.399Z,9.35
2023-03-08T18:29:37.334Z,10.55
2023-03-08T18:32:05.932Z,13.30
2023-03-08T18:34:34.080Z,10.57
2023-03-08T18:37:01.922Z,10.05
2023-03-08T18:39:30.210Z,9.77
2023-03-08T18:42:00.161Z,11.13
2023-03-08T18:44:28.222Z,9.02
2023-03-08T18:46:56.370Z,13.63
2023-03-08T18:49:24.092Z,11.18
2023-03-08T18:51:52.121Z,12.43
2023-03-08T18:54:20.982Z,11.30
2023-03-08T18:56:57.061Z,10.80
2023-03-08T18:59:26.740Z,11.43
2023-03-08T19:01:54.672Z,9.98
2023-03-08T19:04:22.678Z,9.55
2023-03-08T19:06:52.024Z,12.23
2023-03-08T19:09:22.079Z,12.50
2023-03-08T19:11:50.265Z,12.23
2023-03-08T19:14:18.498Z,11.65
2023-03-08T19:16:46.423Z,10.80
2023-03-08T19:19:16.255Z,12.52
2023-03-08T19:21:46.174Z,14.55
2023-03-08T19:24:18.595Z,12.55
2023-03-08T19:26:49.317Z,12.20
2023-03-08T19:29:18.753Z,12.52
2023-03-08T19:31:54.564Z,12.57
2023-03-08T19:34:28.032Z,11.88
2023-03-08T19:36:56.722Z,13.85
2023-03-08T19:39:28.401Z,11.18
2023-03-08T19:41:58.682Z,13.23
2023-03-08T19:44:27.594Z,10.82
2023-03-08T19:46:56.161Z,9.93
2023-03-08T19:49:26.811Z,12.45
2023-03-08T19:51:56.265Z,12.20
2023-03-08T19:54:25.933Z,10.82
2023-03-08T19:56:55.046Z,10.80
2023-03-08T19:59:24.067Z,7.97
2023-03-08T20:01:55.039Z,9.02
2023-03-08T20:04:23.757Z,13.45
2023-03-08T20:06:52.767Z,12.57
2023-03-08T20:09:22.804Z,8.93
2023-03-08T20:11:57.592Z,13.00
2023-03-08T20:14:27.645Z,9.52
2023-03-08T20:16:56.951Z,9.50
2023-03-08T20:19:24.980Z,8.20
2023-03-08T20:21:52.878Z,9.82
2023-03-08T20:24:22.359Z,9.23
2023-03-08T20:26:50.427Z,11.30
2023-03-08T20:29:18.855Z,8.98
2023-03-08T20:31:48.455Z,9.82
2023-03-08T20:34:16.855Z,9.68
2023-03-08T20:36:44.959Z,9.05
2023-03-08T20:39:13.547Z,8.60
2023-03-08T20:41:42.090Z,7.63
2023-03-08T20:44:15.221Z,8.57
2023-03-08T20:46:43.268Z,7.22
2023-03-08T20:49:12.656Z,7.82
2023-03-08T20:51:40.344Z,7.88
2023-03-08T20:54:08.831Z,10.38
2023-03-08T20:56:36.977Z,9.80
2023-03-08T20:59:05.474Z,8.60
2023-03-08T21:01:33.779Z,8.60
2023-03-08T21:04:01.607Z,10.88
2023-03-08T21:06:31.832Z,9.88
2023-03-08T21:09:00.779Z,9.75
2023-03-08T21:11:28.792Z,9.52
2023-03-08T21:13:56.781Z,8.30
2023-03-08T21:16:26.338Z,10.13
2023-03-08T21:18:59.410Z,8.93
2023-03-08T21:21:36.422Z,7.68
2023-03-08T21:24:07.855Z,8.85
2023-03-08T21:26:36.504Z,9.70
2023-03-08T21:29:06.811Z,7.68
2023-03-08T21:31:37.113Z,11.10
2023-03-08T21:34:06.446Z,8.15
2023-03-08T21:36:35.225Z,9.13
2023-03-08T21:39:06.715Z,10.43
2023-03-08T21:41:36.517Z,8.85
2023-03-08T21:44:06.670Z,8.10
2023-03-08T21:46:36.894Z,6.90
2023-03-08T21:49:05.193Z,8.23
2023-03-08T21:51:39.045Z,8.90
2023-03-08T21:54:06.897Z,8.18
2023-03-08T21:56:35.861Z,9.30
2023-03-08T21:59:04.069Z,10.27
2023-03-08T22:01:32.528Z,10.55
2023-03-08T22:04:01.588Z,11.45
2023-03-08T22:06:29.825Z,8.20
2023-03-08T22:08:58.143Z,9.52
2023-03-08T22:11:27.154Z,9.73
2023-03-08T22:13:57.573Z,8.80
2023-03-08T22:16:26.470Z,9.05
2023-03-08T22:18:59.270Z,9.70
2023-03-08T22:21:28.370Z,7.93
2023-03-08T22:23:58.141Z,9.13
2023-03-08T22:26:27.126Z,6.65
2023-03-08T22:28:56.007Z,8.65
2023-03-08T22:31:25.984Z,8.93
2023-03-08T22:33:54.313Z,10.07
2023-03-08T22:36:22.847Z,10.60
2023-03-08T22:38:51.009Z,9.43
2023-03-08T22:41:21.796Z,10.50
2023-03-08T22:43:50.450Z,10.50
2023-03-08T22:46:23.594Z,10.38
2023-03-08T22:48:52.836Z,8.85
2023-03-08T22:51:23.086Z,10.90
2023-03-08T22:53:51.908Z,12.23
2023-03-08T22:56:22.997Z,10.23
2023-03-08T22:58:51.209Z,10.80
2023-03-08T23:01:21.416Z,9.23
2023-03-08T23:03:50.378Z,9.88
2023-03-08T23:06:19.276Z,7.53
2023-03-08T23:08:47.692Z,9.27
2023-03-08T23:11:15.521Z,9.63
2023-03-08T23:13:43.772Z,8.88
2023-03-08T23:16:16.201Z,10.63
2023-03-08T23:18:44.891Z,9.38
2023-03-08T23:21:14.876Z,8.32
2023-03-08T23:23:42.907Z,9.23
2023-03-08T23:26:14.292Z,10.10
2023-03-08T23:28:47.869Z,8.10
2023-03-08T23:31:17.946Z,9.73
2023-03-08T23:33:46.361Z,8.65
2023-03-08T23:36:16.479Z,8.52
2023-03-08T23:38:44.809Z,8.88
2023-03-08T23:41:14.121Z,8.77
2023-03-08T23:43:42.990Z,10.07
2023-03-08T23:46:14.190Z,9.35
2023-03-08T23:48:43.238Z,9.52
2023-03-08T23:51:13.926Z,10.30
2023-03-08T23:53:42.070Z,10.95
2023-03-08T23:56:27.127Z,10.68
2023-03-08T23:58:56.727Z,9.30
